createdAt,value
2019-05-09T05:55:07.525Z,6020.00
2019-05-09T05:56:08.379Z,6068.00
2019-05-09T05:57:08.204Z,6160.00
2019-05-09T05:58:08.393Z,6304.00
2019-05-09T05:59:08.392Z,6384.00
2019-05-09T06:00:07.838Z,6368.00
2019-05-09T06:01:08.057Z,6484.00
2019-05-09T06:02:08.320Z,6300.00
2019-05-09T06:03:08.568Z,6400.00
2019-05-09T06:04:07.617Z,6580.00
2019-05-09T06:05:08.298Z,6808.00
2019-05-09T06:06:05.828Z,7352.00
2019-05-09T06:07:08.057Z,5100.00
2019-05-09T06:08:08.030Z,8244.00
2019-05-09T06:09:08.143Z,13268.00
2019-05-09T06:10:08.078Z,13988.00
2019-05-09T06:11:11.373Z,13060.00
2019-05-09T06:12:08.296Z,10588.00
2019-05-09T06:13:07.777Z,9448.00
2019-05-09T06:14:11.435Z,8472.00
2019-05-09T06:15:07.579Z,8788.00
2019-05-09T06:16:05.719Z,9420.00
2019-05-09T06:17:08.066Z,9532.00
2019-05-09T06:18:07.860Z,9888.00
2019-05-09T06:19:05.695Z,9988.00
2019-05-09T06:20:08.189Z,10132.00
2019-05-09T06:21:05.661Z,10204.00
2019-05-09T06:22:07.921Z,10400.00
2019-05-09T06:23:05.639Z,10392.00
2019-05-09T06:24:05.637Z,10312.00
2019-05-09T06:25:09.233Z,10272.00
2019-05-09T06:26:09.388Z,10188.00
2019-05-09T06:27:09.866Z,7424.00
2019-05-09T06:28:07.535Z,8192.00
2019-05-09T06:29:07.991Z,9840.00
2019-05-09T06:30:05.561Z,11676.00
2019-05-09T06:31:07.564Z,11868.00
2019-05-09T06:32:07.589Z,9304.00
2019-05-09T06:33:05.600Z,8252.00
2019-05-09T06:34:08.128Z,7816.00
2019-05-09T06:35:05.505Z,7496.00
2019-05-09T06:36:07.822Z,7412.00
2019-05-09T06:37:08.647Z,7028.00
2019-05-09T06:38:07.707Z,7400.00
2019-05-09T06:39:05.489Z,8016.00
2019-05-09T06:40:07.897Z,8248.00
2019-05-09T06:41:05.440Z,8532.00
2019-05-09T06:42:05.428Z,8996.00
2019-05-09T06:43:07.936Z,13604.00
2019-05-09T06:44:14.218Z,25952.00
2019-05-09T06:45:07.727Z,33824.00
2019-05-09T06:46:05.400Z,34688.00
2019-05-09T06:47:08.070Z,37856.00
2019-05-09T06:48:07.434Z,40416.00
2019-05-09T06:49:21.326Z,38752.00
2019-05-09T06:50:07.929Z,38816.00
2019-05-09T06:51:07.355Z,37440.00
2019-05-09T06:52:05.317Z,38816.00
2019-05-09T06:53:05.304Z,39552.00
2019-05-09T06:54:05.307Z,25920.00
2019-05-09T06:55:05.284Z,40032.00
2019-05-09T06:56:07.351Z,21376.00
2019-05-09T06:57:07.304Z,40960.00
2019-05-09T06:58:05.250Z,9056.00
2019-05-09T06:59:07.491Z,6308.00
2019-05-09T07:00:05.239Z,6464.00
2019-05-09T07:01:07.559Z,8588.00
2019-05-09T07:02:05.206Z,14348.00
2019-05-09T07:03:07.491Z,6312.00
2019-05-09T07:04:05.201Z,6464.00
2019-05-09T07:05:07.508Z,35648.00
2019-05-09T07:06:05.162Z,8488.00
2019-05-09T07:07:07.768Z,8048.00
2019-05-09T07:08:05.140Z,7472.00
2019-05-09T07:09:05.140Z,6964.00
2019-05-09T07:10:07.449Z,7272.00
2019-05-09T07:11:07.441Z,7664.00
2019-05-09T07:12:07.686Z,7320.00
2019-05-09T07:13:05.086Z,5736.00
2019-05-09T07:14:05.074Z,5692.00
2019-05-09T07:15:05.070Z,6612.00
2019-05-09T07:16:05.051Z,5936.00
2019-05-09T07:17:05.048Z,6408.00
2019-05-09T07:18:05.028Z,7500.00
2019-05-09T07:19:05.018Z,8192.00
2019-05-09T07:20:05.020Z,7728.00
2019-05-09T07:21:04.996Z,6068.00
2019-05-09T07:22:04.989Z,5388.00
2019-05-09T07:23:04.973Z,4824.00
2019-05-09T07:24:04.963Z,4012.00
2019-05-09T07:25:07.660Z,4308.00
2019-05-09T07:26:07.695Z,5324.00
2019-05-09T07:27:07.231Z,5452.00
2019-05-09T07:28:07.508Z,6408.00
2019-05-09T07:29:07.315Z,6316.00
2019-05-09T07:30:04.904Z,6356.00
2019-05-09T07:31:04.895Z,6080.00
2019-05-09T07:32:04.873Z,7336.00
2019-05-09T07:33:04.863Z,7960.00
2019-05-09T07:34:04.850Z,8768.00
2019-05-09T07:35:04.847Z,8916.00
2019-05-09T07:36:04.834Z,8512.00
2019-05-09T07:37:04.819Z,6644.00
2019-05-09T07:38:04.806Z,6588.00
2019-05-09T07:39:04.793Z,7676.00
2019-05-09T07:40:04.799Z,6560.00
2019-05-09T07:41:04.773Z,6704.00
2019-05-09T07:42:04.761Z,6268.00
2019-05-09T07:43:04.748Z,7504.00
2019-05-09T07:44:04.737Z,9876.00
2019-05-09T07:45:04.729Z,10248.00
2019-05-09T07:46:04.734Z,8528.00
2019-05-09T07:47:04.705Z,7732.00
2019-05-09T07:48:04.696Z,7748.00
2019-05-09T07:49:04.682Z,8608.00
2019-05-09T07:50:04.725Z,9824.00
2019-05-09T07:51:04.668Z,8524.00
2019-05-09T07:52:09.380Z,7988.00
2019-05-09T07:53:05.656Z,8188.00
2019-05-09T07:54:18.278Z,7944.00
2019-05-09T07:55:05.614Z,8604.00
2019-05-09T07:56:04.612Z,6480.00
2019-05-09T07:57:04.598Z,5852.00
2019-05-09T07:58:04.580Z,6384.00
2019-05-09T07:59:04.570Z,6856.00
2019-05-09T08:00:04.559Z,6520.00
2019-05-09T08:01:04.556Z,5276.00
2019-05-09T08:02:04.534Z,4964.00
2019-05-09T08:03:04.532Z,4832.00
2019-05-09T08:04:04.516Z,4868.00
2019-05-09T08:05:04.502Z,4672.00
2019-05-09T08:06:04.501Z,4588.00
2019-05-09T08:07:04.482Z,4292.00
2019-05-09T08:08:04.469Z,4260.00
2019-05-09T08:09:04.459Z,4576.00
2019-05-09T08:10:04.449Z,4584.00
2019-05-09T08:11:04.443Z,4604.00
2019-05-09T08:12:04.424Z,4644.00
2019-05-09T08:13:08.010Z,4692.00
2019-05-09T08:14:08.334Z,4912.00
2019-05-09T08:15:13.372Z,4860.00
2019-05-09T08:16:07.874Z,4784.00
2019-05-09T08:17:05.367Z,4752.00
2019-05-09T08:18:04.355Z,4640.00
2019-05-09T08:19:04.350Z,4544.00
2019-05-09T08:20:04.339Z,4532.00
2019-05-09T08:21:04.332Z,4436.00
2019-05-09T08:22:04.317Z,4396.00
2019-05-09T08:23:04.300Z,4300.00
2019-05-09T08:24:04.289Z,4200.00
2019-05-09T08:25:04.279Z,4180.00
2019-05-09T08:26:04.735Z,4192.00
2019-05-09T08:27:04.270Z,4144.00
2019-05-09T08:28:04.247Z,4040.00
2019-05-09T08:29:04.237Z,3992.00
2019-05-09T08:30:04.223Z,3984.00
2019-05-09T08:31:04.222Z,4000.00
2019-05-09T08:32:04.201Z,4112.00
2019-05-09T08:33:04.191Z,4308.00
2019-05-09T08:34:04.177Z,4532.00
2019-05-09T08:35:04.170Z,4728.00
2019-05-09T08:36:04.173Z,4948.00
2019-05-09T08:37:04.148Z,5200.00
2019-05-09T08:38:04.137Z,5572.00
2019-05-09T08:39:04.126Z,5992.00
2019-05-09T08:40:04.114Z,6476.00
2019-05-09T08:41:04.102Z,6760.00
2019-05-09T08:42:04.102Z,6764.00
2019-05-09T08:43:04.080Z,6636.00
2019-05-09T08:44:04.067Z,6464.00
2019-05-09T08:45:04.072Z,6220.00
2019-05-09T08:46:04.048Z,5840.00
2019-05-09T08:47:04.043Z,5400.00
2019-05-09T08:48:04.026Z,5112.00
2019-05-09T08:49:04.011Z,4904.00
2019-05-09T08:50:04.002Z,4836.00
2019-05-09T08:51:03.995Z,4948.00
2019-05-09T08:52:14.944Z,5156.00
2019-05-09T08:53:04.970Z,5332.00
2019-05-09T08:54:03.956Z,5448.00
2019-05-09T08:55:03.949Z,5576.00
2019-05-09T08:56:03.934Z,5816.00
2019-05-09T08:57:03.932Z,6088.00
2019-05-09T08:58:03.916Z,6328.00
2019-05-09T08:59:03.908Z,6512.00
2019-05-09T09:00:03.887Z,6540.00
2019-05-09T09:01:04.640Z,6424.00
2019-05-09T09:02:15.711Z,6392.00
2019-05-09T09:03:04.853Z,6416.00
2019-05-09T09:04:03.845Z,6468.00
2019-05-09T09:05:03.834Z,6288.00
2019-05-09T09:06:03.823Z,5968.00
2019-05-09T09:07:03.820Z,5748.00
2019-05-09T09:08:03.801Z,5604.00
2019-05-09T09:09:03.791Z,5444.00
2019-05-09T09:10:03.786Z,5288.00
2019-05-09T09:11:03.766Z,5088.00
2019-05-09T09:12:03.768Z,5060.00
2019-05-09T09:13:03.765Z,4996.00
2019-05-09T09:14:03.733Z,4572.00
2019-05-09T09:15:03.737Z,4752.00
2019-05-09T09:16:14.490Z,5148.00
2019-05-09T09:17:04.715Z,6008.00
2019-05-09T09:18:03.690Z,6472.00
2019-05-09T09:19:03.681Z,7000.00
2019-05-09T09:20:03.666Z,7432.00
2019-05-09T09:21:03.670Z,6976.00
2019-05-09T09:22:03.663Z,7272.00
2019-05-09T09:23:03.631Z,7224.00
2019-05-09T09:24:03.620Z,6804.00
2019-05-09T09:25:03.608Z,6984.00
2019-05-09T09:26:03.603Z,7332.00
2019-05-09T09:27:03.588Z,7748.00
2019-05-09T09:28:03.585Z,8544.00
2019-05-09T09:29:03.564Z,8688.00
2019-05-09T09:30:16.428Z,8288.00
2019-05-09T09:31:04.544Z,7224.00
2019-05-09T09:32:03.530Z,6520.00
2019-05-09T09:33:03.530Z,7392.00
2019-05-09T09:34:03.516Z,7748.00
2019-05-09T09:35:03.518Z,7260.00
2019-05-09T09:36:03.488Z,6852.00
2019-05-09T09:37:06.361Z,6152.00
2019-05-09T09:38:04.473Z,5644.00
2019-05-09T09:39:03.454Z,5828.00
2019-05-09T09:40:03.444Z,5852.00
2019-05-09T09:41:03.430Z,5496.00
2019-05-09T09:42:03.421Z,4956.00
2019-05-09T09:43:03.418Z,4720.00
2019-05-09T09:44:03.397Z,5224.00
2019-05-09T09:45:03.385Z,5312.00
2019-05-09T09:46:10.448Z,6580.00
2019-05-09T09:47:04.362Z,7596.00
2019-05-09T09:48:03.382Z,7680.00
2019-05-09T09:49:03.349Z,7656.00
2019-05-09T09:50:03.399Z,7428.00
2019-05-09T09:51:03.318Z,6868.00
2019-05-09T09:52:03.318Z,6700.00
2019-05-09T09:53:03.308Z,6620.00
2019-05-09T09:54:03.288Z,6532.00
2019-05-09T09:55:03.298Z,6616.00
2019-05-09T09:56:03.265Z,6524.00
2019-05-09T09:57:03.254Z,6164.00
2019-05-09T09:58:03.252Z,5744.00
2019-05-09T09:59:03.233Z,6004.00
2019-05-09T10:00:03.222Z,5740.00
2019-05-09T10:01:03.912Z,5388.00
2019-05-09T10:02:03.218Z,5228.00
2019-05-09T10:03:03.196Z,5168.00
2019-05-09T10:04:18.626Z,5292.00
2019-05-09T10:05:04.163Z,5540.00
2019-05-09T10:06:03.155Z,5872.00
2019-05-09T10:07:03.151Z,6448.00
2019-05-09T10:08:03.138Z,7204.00
2019-05-09T10:09:03.121Z,7808.00
2019-05-09T10:10:03.108Z,7980.00
2019-05-09T10:11:03.097Z,8036.00
2019-05-09T10:12:03.153Z,8084.00
2019-05-09T10:13:04.163Z,7752.00
2019-05-09T10:14:03.066Z,7416.00
2019-05-09T10:15:03.060Z,7508.00
2019-05-09T10:16:03.050Z,7560.00
2019-05-09T10:17:03.049Z,7568.00
2019-05-09T10:18:03.034Z,7676.00
2019-05-09T10:19:03.009Z,7860.00
2019-05-09T10:20:02.996Z,7800.00
2019-05-09T10:21:02.986Z,7772.00
2019-05-09T10:22:02.975Z,7984.00
2019-05-09T10:23:11.735Z,8180.00
2019-05-09T10:24:03.954Z,8364.00
2019-05-09T10:25:02.941Z,8396.00
2019-05-09T10:26:02.928Z,8828.00
2019-05-09T10:27:02.917Z,9032.00
2019-05-09T10:28:02.919Z,9136.00
2019-05-09T10:29:02.899Z,9004.00
2019-05-09T10:30:02.890Z,9600.00
2019-05-09T10:31:02.873Z,9620.00
2019-05-09T10:32:02.861Z,10344.00
2019-05-09T10:33:02.853Z,11284.00
2019-05-09T10:34:02.853Z,11732.00
2019-05-09T10:35:02.834Z,11860.00
2019-05-09T10:36:04.759Z,11972.00
2019-05-09T10:37:02.805Z,12012.00
2019-05-09T10:38:02.794Z,12060.00
2019-05-09T10:39:02.792Z,11952.00
2019-05-09T10:40:02.774Z,11772.00
2019-05-09T10:41:02.792Z,12816.00
2019-05-09T10:42:02.754Z,14472.00
2019-05-09T10:43:02.742Z,16576.00
2019-05-09T10:44:02.737Z,18784.00
2019-05-09T10:45:02.731Z,22112.00
2019-05-09T10:46:02.705Z,24672.00
2019-05-09T10:47:02.698Z,25280.00
2019-05-09T10:48:02.685Z,24704.00
2019-05-09T10:49:02.700Z,23264.00
2019-05-09T10:50:02.660Z,22016.00
2019-05-09T10:51:05.592Z,12956.00
2019-05-09T10:52:03.642Z,11408.00
2019-05-09T10:53:02.631Z,16640.00
2019-05-09T10:54:02.639Z,33504.00
2019-05-09T10:55:02.605Z,29344.00
2019-05-09T10:56:02.593Z,22272.00
2019-05-09T10:57:02.584Z,20768.00
2019-05-09T10:58:02.728Z,46368.00
2019-05-09T10:59:02.568Z,22368.00
2019-05-09T11:00:03.031Z,15260.00
2019-05-09T11:01:02.540Z,11732.00
2019-05-09T11:02:02.535Z,10256.00
2019-05-09T11:03:02.515Z,9004.00
2019-05-09T11:04:02.518Z,8468.00
2019-05-09T11:05:02.494Z,8428.00
2019-05-09T11:06:02.483Z,10104.00
2019-05-09T11:07:02.482Z,10720.00
2019-05-09T11:08:02.457Z,10340.00
2019-05-09T11:09:02.467Z,10608.00
2019-05-09T11:10:02.443Z,12316.00
2019-05-09T11:11:05.835Z,13432.00
2019-05-09T11:12:02.549Z,17376.00
2019-05-09T11:13:02.401Z,16800.00
2019-05-09T11:14:02.398Z,20448.00
2019-05-09T11:15:02.392Z,15236.00
2019-05-09T11:16:02.395Z,12312.00
2019-05-09T11:17:10.816Z,11052.00
2019-05-09T11:18:03.343Z,10128.00
2019-05-09T11:19:02.332Z,9500.00
2019-05-09T11:20:02.329Z,9180.00
2019-05-09T11:21:02.325Z,9064.00
2019-05-09T11:22:02.316Z,9480.00
2019-05-09T11:23:02.291Z,10512.00
2019-05-09T11:24:02.281Z,10508.00
2019-05-09T11:25:02.279Z,9500.00
2019-05-09T11:26:02.260Z,8996.00
2019-05-09T11:27:02.244Z,8972.00
2019-05-09T11:28:10.465Z,8772.00
2019-05-09T11:29:03.219Z,8400.00
2019-05-09T11:30:02.225Z,8528.00
2019-05-09T11:31:02.197Z,9116.00
2019-05-09T11:32:02.185Z,9480.00
2019-05-09T11:33:02.179Z,10048.00
2019-05-09T11:34:02.167Z,11056.00
2019-05-09T11:35:02.165Z,12640.00
2019-05-09T11:36:02.146Z,13616.00
2019-05-09T11:37:02.130Z,14016.00
2019-05-09T11:38:02.120Z,14260.00
2019-05-09T11:39:02.273Z,14964.00
2019-05-09T11:40:02.122Z,20800.00
2019-05-09T11:41:02.171Z,17760.00
2019-05-09T11:42:02.077Z,22848.00
2019-05-09T11:43:02.064Z,22304.00
2019-05-09T11:44:02.087Z,27648.00
2019-05-09T11:45:02.051Z,21088.00
2019-05-09T11:46:02.031Z,18976.00
2019-05-09T11:47:02.019Z,18880.00
2019-05-09T11:48:02.012Z,25376.00
2019-05-09T11:49:01.996Z,26720.00
2019-05-09T11:50:01.998Z,32672.00
2019-05-09T11:51:01.976Z,20448.00
2019-05-09T11:52:01.963Z,17792.00
2019-05-09T11:53:02.023Z,15332.00
2019-05-09T11:54:01.940Z,12928.00
2019-05-09T11:55:01.939Z,10476.00
2019-05-09T11:56:01.919Z,8440.00
2019-05-09T11:57:01.909Z,7308.00
2019-05-09T11:58:01.902Z,6808.00
2019-05-09T11:59:01.895Z,6728.00
2019-05-09T12:00:01.883Z,6720.00
2019-05-09T12:01:03.157Z,6436.00
2019-05-09T12:02:01.853Z,6020.00
2019-05-09T12:03:01.840Z,5540.00
2019-05-09T12:04:01.828Z,4972.00
2019-05-09T12:05:01.863Z,4444.00
2019-05-09T12:06:01.805Z,4136.00
2019-05-09T12:07:01.798Z,4092.00
2019-05-09T12:08:01.782Z,4152.00
2019-05-09T12:09:01.796Z,4208.00
2019-05-09T12:10:01.791Z,4124.00
2019-05-09T12:11:01.750Z,4044.00
2019-05-09T12:12:01.739Z,4032.00
2019-05-09T12:13:01.724Z,4208.00
2019-05-09T12:14:01.716Z,4424.00
2019-05-09T12:15:01.723Z,4668.00
2019-05-09T12:16:01.691Z,4952.00
2019-05-09T12:17:01.738Z,5268.00
2019-05-09T12:18:07.503Z,5556.00
2019-05-09T12:19:02.672Z,5688.00
2019-05-09T12:20:12.298Z,5652.00
2019-05-09T12:21:02.637Z,5604.00
2019-05-09T12:22:01.629Z,5456.00
2019-05-09T12:23:01.615Z,5260.00
2019-05-09T12:24:01.612Z,5048.00
2019-05-09T12:25:01.602Z,4732.00
2019-05-09T12:26:01.593Z,4356.00
2019-05-09T12:27:03.131Z,4044.00
2019-05-09T12:28:01.562Z,3772.00
2019-05-09T12:29:01.559Z,3640.00
2019-05-09T12:30:01.543Z,3640.00
2019-05-09T12:31:01.533Z,3664.00
2019-05-09T12:32:01.564Z,3736.00
2019-05-09T12:33:01.504Z,3796.00
2019-05-09T12:34:01.562Z,3752.00
2019-05-09T12:35:01.481Z,3796.00
2019-05-09T12:36:01.516Z,3748.00
2019-05-09T12:37:01.462Z,3572.00
2019-05-09T12:38:01.455Z,3356.00
2019-05-09T12:39:01.436Z,3096.00
2019-05-09T12:40:01.424Z,2804.00
2019-05-09T12:41:01.421Z,2564.00
2019-05-09T12:42:01.404Z,2316.00
2019-05-09T12:43:01.396Z,2080.00
2019-05-09T12:44:01.438Z,1908.00
2019-05-09T12:45:01.369Z,1800.00
2019-05-09T12:46:01.370Z,1732.00
2019-05-09T12:47:01.344Z,1676.00
2019-05-09T12:48:10.884Z,1580.00
2019-05-09T12:49:02.330Z,1504.00
2019-05-09T12:50:02.913Z,1432.00
2019-05-09T12:51:01.310Z,1380.00
2019-05-09T12:52:01.292Z,1336.00
2019-05-09T12:53:01.278Z,1312.00
2019-05-09T12:54:01.269Z,1300.00
2019-05-09T12:55:01.265Z,1280.00
2019-05-09T12:56:01.545Z,1252.00
2019-05-09T12:57:01.233Z,1256.00
2019-05-09T12:58:01.223Z,1244.00
2019-05-09T12:59:01.259Z,1220.00
2019-05-09T13:00:01.200Z,1212.00
2019-05-09T13:01:01.198Z,1216.00
2019-05-09T13:02:01.281Z,1220.00
2019-05-09T13:03:01.165Z,1216.00
2019-05-09T13:04:01.159Z,1236.00
2019-05-09T13:05:01.161Z,1272.00
2019-05-09T13:06:01.189Z,1300.00
2019-05-09T13:07:01.131Z,1336.00
2019-05-09T13:08:01.109Z,1360.00
2019-05-09T13:09:01.128Z,1396.00
2019-05-09T13:10:01.101Z,1436.00
2019-05-09T13:11:02.585Z,1480.00
2019-05-09T13:12:01.064Z,1508.00
2019-05-09T13:13:01.066Z,1596.00
2019-05-09T13:14:01.040Z,1724.00
2019-05-09T13:15:01.034Z,1824.00
2019-05-09T13:16:01.033Z,1952.00
2019-05-09T13:17:01.010Z,2100.00
2019-05-09T13:18:00.997Z,2352.00
2019-05-09T13:19:02.623Z,2660.00
2019-05-09T13:20:00.981Z,3024.00
2019-05-09T13:21:00.984Z,3420.00
2019-05-09T13:22:00.962Z,3700.00
2019-05-09T13:23:00.945Z,3968.00
2019-05-09T13:24:00.933Z,4404.00
2019-05-09T13:25:02.921Z,5120.00
2019-05-09T13:26:00.926Z,5924.00
2019-05-09T13:27:00.948Z,6332.00
2019-05-09T13:28:00.885Z,7016.00
2019-05-09T13:29:00.876Z,7716.00
2019-05-09T13:30:00.866Z,8076.00
2019-05-09T13:31:00.865Z,8296.00
2019-05-09T13:32:00.840Z,8240.00
2019-05-09T13:33:00.829Z,8056.00
2019-05-09T13:34:00.818Z,7836.00
2019-05-09T13:35:00.809Z,7816.00
2019-05-09T13:36:00.803Z,8192.00
2019-05-09T13:37:00.814Z,8168.00
2019-05-09T13:38:00.775Z,7764.00
2019-05-09T13:39:04.640Z,7476.00
2019-05-09T13:40:00.753Z,7132.00
2019-05-09T13:41:00.748Z,6604.00
2019-05-09T13:42:00.738Z,5980.00
2019-05-09T13:43:00.718Z,5560.00
2019-05-09T13:44:05.173Z,5204.00
2019-05-09T13:45:00.696Z,5044.00
2019-05-09T13:46:00.686Z,5200.00
2019-05-09T13:47:00.689Z,5560.00
2019-05-09T13:48:00.662Z,5908.00
2019-05-09T13:49:11.072Z,6600.00
2019-05-09T13:50:01.646Z,7388.00
2019-05-09T13:51:00.627Z,8144.00
2019-05-09T13:52:04.644Z,9016.00
2019-05-09T13:53:00.606Z,9300.00
2019-05-09T13:54:00.595Z,9336.00
2019-05-09T13:55:00.585Z,9488.00
2019-05-09T13:56:00.607Z,9684.00
2019-05-09T13:57:01.546Z,9796.00
2019-05-09T13:58:00.553Z,10188.00
2019-05-09T13:59:00.546Z,10016.00
2019-05-09T14:00:00.525Z,9640.00
2019-05-09T14:01:02.632Z,9016.00
2019-05-09T14:02:00.544Z,8148.00
2019-05-09T14:03:00.492Z,7416.00
2019-05-09T14:04:00.498Z,6836.00
2019-05-09T14:05:00.511Z,6420.00
2019-05-09T14:06:00.460Z,6112.00
2019-05-09T14:07:00.449Z,5620.00
2019-05-09T14:08:03.536Z,5144.00
2019-05-09T14:09:00.427Z,4780.00
2019-05-09T14:10:00.414Z,4432.00
2019-05-09T14:11:00.406Z,4076.00
2019-05-09T14:12:00.397Z,3724.00
2019-05-09T14:13:08.917Z,3352.00
2019-05-09T14:14:01.369Z,3040.00
2019-05-09T14:15:00.357Z,2824.00
2019-05-09T14:16:15.122Z,2688.00
2019-05-09T14:17:01.335Z,2628.00
2019-05-09T14:18:00.339Z,2648.00
2019-05-09T14:19:23.956Z,2680.00
2019-05-09T14:20:01.626Z,2808.00
2019-05-09T14:21:00.290Z,2972.00
2019-05-09T14:22:00.283Z,3008.00
2019-05-09T14:23:00.280Z,2972.00
2019-05-09T14:24:10.767Z,2836.00
2019-05-09T14:25:01.244Z,2692.00
2019-05-09T14:26:00.238Z,2496.00
2019-05-09T14:27:00.223Z,2392.00
2019-05-09T14:28:00.222Z,2356.00
2019-05-09T14:29:00.212Z,2440.00
2019-05-09T14:30:00.195Z,2684.00
2019-05-09T14:31:00.178Z,3092.00
2019-05-09T14:32:04.380Z,3412.00
2019-05-09T14:33:01.168Z,3648.00
2019-05-09T14:34:00.146Z,3764.00
2019-05-09T14:35:00.138Z,3844.00
2019-05-09T14:36:00.121Z,3800.00
2019-05-09T14:37:00.114Z,3556.00
2019-05-09T14:38:00.134Z,3392.00
2019-05-09T14:39:00.093Z,3520.00
2019-05-09T14:40:04.517Z,3804.00
2019-05-09T14:41:01.065Z,4248.00
2019-05-09T14:42:00.057Z,4608.00
2019-05-09T14:43:00.052Z,4804.00
2019-05-09T14:44:00.075Z,5216.00
2019-05-09T14:45:00.022Z,5156.00
2019-05-09T14:46:00.015Z,4928.00
2019-05-09T14:47:00.001Z,4800.00
2019-05-09T14:47:59.996Z,4612.00
2019-05-09T14:48:59.978Z,4540.00
2019-05-09T14:49:59.970Z,4624.00
2019-05-09T14:50:59.956Z,4772.00
2019-05-09T14:51:59.946Z,4868.00
2019-05-09T14:52:59.940Z,5052.00
2019-05-09T14:53:59.921Z,5368.00
2019-05-09T14:54:59.913Z,5616.00
2019-05-09T14:55:59.899Z,5864.00
2019-05-09T14:56:59.887Z,6036.00
2019-05-09T14:57:59.880Z,6048.00
2019-05-09T14:58:59.874Z,6040.00
2019-05-09T14:59:59.855Z,6076.00
2019-05-09T15:01:00.871Z,6248.00
2019-05-09T15:01:59.839Z,6216.00
2019-05-09T15:02:59.821Z,5988.00
2019-05-09T15:03:59.817Z,5824.00
2019-05-09T15:04:59.799Z,5724.00
2019-05-09T15:05:59.790Z,5704.00
2019-05-09T15:06:59.774Z,5676.00
2019-05-09T15:07:59.764Z,5820.00
2019-05-09T15:08:59.768Z,5924.00
2019-05-09T15:10:00.030Z,6020.00
2019-05-09T15:10:59.731Z,6116.00
2019-05-09T15:11:59.717Z,6400.00
2019-05-09T15:12:59.709Z,7132.00
2019-05-09T15:13:59.705Z,8412.00
2019-05-09T15:14:59.684Z,7988.00
2019-05-09T15:15:59.678Z,8584.00
2019-05-09T15:16:59.665Z,9036.00
2019-05-09T15:17:59.650Z,10180.00
2019-05-09T15:18:59.650Z,13160.00
2019-05-09T15:20:00.772Z,12364.00
2019-05-09T15:20:59.617Z,11816.00
2019-05-09T15:22:00.684Z,20000.00
2019-05-09T15:22:59.596Z,25920.00
2019-05-09T15:23:59.603Z,14268.00
2019-05-09T15:24:59.574Z,16576.00
2019-05-09T15:25:59.567Z,23584.00
2019-05-09T15:26:59.553Z,14004.00
2019-05-09T15:27:59.539Z,15456.00
2019-05-09T15:28:59.543Z,21472.00
2019-05-09T15:29:59.527Z,29696.00
2019-05-09T15:30:59.577Z,35264.00
2019-05-09T15:32:05.309Z,36544.00
2019-05-09T15:33:00.484Z,40320.00
2019-05-09T15:33:59.472Z,45280.00
2019-05-09T15:34:59.473Z,43776.00
2019-05-09T15:35:59.452Z,42912.00
2019-05-09T15:36:59.442Z,29504.00
2019-05-09T15:37:59.428Z,22016.00
2019-05-09T15:38:59.425Z,13616.00
2019-05-09T15:39:59.417Z,4480.00
2019-05-09T15:40:59.504Z,4204.00
2019-05-09T15:41:59.383Z,4024.00
2019-05-09T15:42:59.375Z,3808.00
2019-05-09T15:43:59.366Z,3720.00
2019-05-09T15:44:59.363Z,3660.00
2019-05-09T15:45:59.342Z,3596.00
2019-05-09T15:46:59.332Z,3524.00
2019-05-09T15:47:59.318Z,3412.00
2019-05-09T15:48:59.306Z,3340.00
2019-05-09T15:50:14.676Z,3272.00
2019-05-09T15:51:00.284Z,3256.00
2019-05-09T15:51:59.272Z,3252.00
2019-05-09T15:52:59.264Z,3424.00
2019-05-09T15:53:59.252Z,3600.00
2019-05-09T15:54:59.270Z,3676.00
2019-05-09T15:55:59.227Z,3784.00
2019-05-09T15:56:59.215Z,4108.00
2019-05-09T15:57:59.205Z,4600.00
2019-05-09T15:58:59.197Z,4920.00
2019-05-09T15:59:59.193Z,5456.00
2019-05-09T16:00:59.186Z,5660.00
2019-05-09T16:01:59.161Z,5308.00
2019-05-09T16:02:59.310Z,4352.00
2019-05-09T16:03:59.142Z,3940.00
2019-05-09T16:04:59.140Z,3736.00
2019-05-09T16:05:59.119Z,3716.00
2019-05-09T16:06:59.116Z,3596.00
2019-05-09T16:07:59.095Z,3908.00
2019-05-09T16:08:59.099Z,3876.00
2019-05-09T16:09:59.119Z,3840.00
2019-05-09T16:10:59.060Z,3720.00
2019-05-09T16:11:59.052Z,3520.00
2019-05-09T16:12:59.041Z,3072.00
2019-05-09T16:13:59.039Z,2876.00
2019-05-09T16:14:59.018Z,2808.00
2019-05-09T16:15:59.028Z,2476.00
2019-05-09T16:16:59.002Z,2400.00
2019-05-09T16:17:59.007Z,2348.00
2019-05-09T16:18:58.976Z,2324.00
2019-05-09T16:19:58.971Z,2448.00
2019-05-09T16:20:58.968Z,2748.00
2019-05-09T16:21:58.943Z,2928.00
2019-05-09T16:22:58.936Z,2900.00
2019-05-09T16:23:59.415Z,2856.00
2019-05-09T16:24:58.910Z,2796.00
2019-05-09T16:25:58.920Z,2740.00
2019-05-09T16:26:58.889Z,2404.00
2019-05-09T16:27:58.880Z,2364.00
2019-05-09T16:28:58.868Z,2536.00
2019-05-09T16:29:58.854Z,2672.00
2019-05-09T16:30:58.856Z,2336.00
2019-05-09T16:31:58.888Z,2424.00
2019-05-09T16:32:58.823Z,2344.00
2019-05-09T16:33:58.812Z,2296.00
2019-05-09T16:34:58.834Z,2308.00
2019-05-09T16:35:58.802Z,2196.00
2019-05-09T16:36:58.775Z,2164.00
2019-05-09T16:38:06.448Z,2244.00
2019-05-09T16:38:59.752Z,2412.00
2019-05-09T16:39:58.742Z,2600.00
2019-05-09T16:40:58.739Z,2552.00
2019-05-09T16:41:59.323Z,2440.00
2019-05-09T16:42:58.710Z,2436.00
2019-05-09T16:43:58.697Z,2568.00
2019-05-09T16:44:59.468Z,2636.00
2019-05-09T16:45:58.681Z,2804.00
2019-05-09T16:46:58.668Z,3164.00
2019-05-09T16:47:58.655Z,3312.00
2019-05-09T16:48:58.647Z,3352.00
2019-05-09T16:49:58.631Z,3520.00
2019-05-09T16:51:01.275Z,3172.00
2019-05-09T16:51:59.607Z,3036.00
2019-05-09T16:52:58.664Z,3108.00
2019-05-09T16:53:58.598Z,2988.00
2019-05-09T16:54:58.651Z,2940.00
2019-05-09T16:55:58.569Z,2600.00
2019-05-09T16:57:00.022Z,2604.00
2019-05-09T16:57:58.547Z,2456.00
2019-05-09T16:58:58.527Z,2440.00
2019-05-09T16:59:58.518Z,2400.00
2019-05-09T17:00:58.514Z,2228.00
2019-05-09T17:01:58.494Z,2208.00
2019-05-09T17:02:58.482Z,2256.00
2019-05-09T17:03:58.475Z,2252.00
2019-05-09T17:04:58.459Z,2204.00
2019-05-09T17:05:58.486Z,2288.00
2019-05-09T17:06:58.440Z,2488.00
2019-05-09T17:07:58.450Z,2464.00
2019-05-09T17:08:58.544Z,2552.00
2019-05-09T17:09:58.403Z,2584.00
2019-05-09T17:10:58.892Z,2440.00
2019-05-09T17:11:58.382Z,2400.00
2019-05-09T17:12:58.426Z,2436.00
2019-05-09T17:13:58.550Z,2400.00
2019-05-09T17:14:59.759Z,2344.00
2019-05-09T17:15:58.336Z,2296.00
2019-05-09T17:16:59.977Z,2240.00
2019-05-09T17:17:58.314Z,2264.00
2019-05-09T17:18:58.371Z,2412.00
2019-05-09T17:19:58.292Z,2552.00
2019-05-09T17:21:03.085Z,2536.00
2019-05-09T17:21:59.278Z,2564.00
2019-05-09T17:23:10.394Z,2576.00
2019-05-09T17:23:59.245Z,2524.00
2019-05-09T17:24:58.241Z,2608.00
2019-05-09T17:25:58.224Z,2568.00
2019-05-09T17:26:58.223Z,2384.00
2019-05-09T17:27:59.436Z,2336.00
2019-05-09T17:28:58.193Z,2100.00
2019-05-09T17:29:58.181Z,1868.00
2019-05-09T17:30:58.181Z,1940.00
2019-05-09T17:31:58.403Z,1768.00
2019-05-09T17:32:58.433Z,1656.00
2019-05-09T17:33:58.137Z,1684.00
2019-05-09T17:34:58.310Z,1628.00
2019-05-09T17:35:58.120Z,1664.00
2019-05-09T17:36:58.108Z,1656.00
2019-05-09T17:37:58.090Z,1544.00
2019-05-09T17:38:58.079Z,1416.00
2019-05-09T17:39:58.068Z,1244.00
2019-05-09T17:40:58.058Z,1228.00
2019-05-09T17:41:58.372Z,1208.00
2019-05-09T17:42:59.126Z,1192.00
2019-05-09T17:43:58.277Z,1172.00
2019-05-09T17:44:58.059Z,1184.00
2019-05-09T17:45:58.661Z,1212.00
2019-05-09T17:46:58.260Z,1264.00
2019-05-09T17:47:57.977Z,1292.00
2019-05-09T17:48:58.405Z,1300.00
2019-05-09T17:49:57.958Z,1320.00
2019-05-09T17:50:58.107Z,1284.00
2019-05-09T17:51:58.539Z,1244.00
2019-05-09T17:52:57.989Z,1216.00
2019-05-09T17:53:58.488Z,1208.00
2019-05-09T17:54:59.075Z,1172.00
2019-05-09T17:55:58.663Z,1140.00
2019-05-09T17:56:57.887Z,1132.00